createdAt,value
2023-03-06T00:02:01.319Z,0.49
2023-03-06T00:04:27.984Z,0.55
2023-03-06T00:06:54.611Z,0.49
2023-03-06T00:09:21.274Z,0.65
2023-03-06T00:11:48.050Z,0.68
2023-03-06T00:14:14.856Z,0.54
2023-03-06T00:16:41.445Z,0.32
2023-03-06T00:19:08.142Z,0.39
2023-03-06T00:21:34.833Z,0.16
2023-03-06T00:24:01.518Z,0.26
2023-03-06T00:26:28.242Z,0.09
2023-03-06T00:28:54.856Z,0.02
2023-03-06T00:31:21.509Z,-0.07
2023-03-06T00:33:48.222Z,-0.02
2023-03-06T00:36:14.951Z,-0.18
2023-03-06T00:38:41.598Z,0.01
2023-03-06T00:41:11.715Z,0.17
2023-03-06T00:43:38.437Z,0.17
2023-03-06T00:46:05.834Z,0.26
2023-03-06T00:48:33.455Z,0.41
2023-03-06T00:51:00.165Z,0.55
2023-03-06T00:53:26.872Z,0.26
2023-03-06T00:55:53.520Z,0.21
2023-03-06T00:58:20.188Z,0.16
2023-03-06T01:00:46.874Z,0.20
2023-03-06T01:03:13.538Z,0.18
2023-03-06T01:05:40.349Z,0.17
2023-03-06T01:08:07.032Z,0.08
2023-03-06T01:10:33.717Z,-0.04
2023-03-06T01:13:00.341Z,0.04
2023-03-06T01:15:26.992Z,0.06
2023-03-06T01:17:54.546Z,-0.01
2023-03-06T01:20:21.316Z,0.01
2023-03-06T01:22:48.981Z,0.08
2023-03-06T01:25:15.687Z,-0.10
2023-03-06T01:27:42.356Z,-0.11
2023-03-06T01:30:09.693Z,-0.13
2023-03-06T01:32:36.350Z,0.03
2023-03-06T01:35:03.924Z,0.15
2023-03-06T01:37:30.652Z,0.34
2023-03-06T01:39:57.465Z,0.14
2023-03-06T01:42:24.101Z,0.24
2023-03-06T01:45:09.397Z,0.27
2023-03-06T01:47:35.999Z,0.53
2023-03-06T01:50:04.047Z,0.47
2023-03-06T01:52:36.447Z,0.56
2023-03-06T01:55:06.125Z,0.72
2023-03-06T01:57:43.374Z,0.07
2023-03-06T02:00:12.548Z,0.22
2023-03-06T02:02:40.279Z,0.47
2023-03-06T02:05:07.373Z,0.46
2023-03-06T02:07:34.492Z,0.44
2023-03-06T02:10:01.141Z,0.31
2023-03-06T02:12:27.816Z,-0.10
2023-03-06T02:14:54.460Z,0.18
2023-03-06T02:17:21.608Z,0.31
2023-03-06T02:20:09.677Z,0.39
2023-03-06T02:22:57.169Z,0.62
2023-03-06T02:25:26.921Z,0.44
2023-03-06T02:27:53.582Z,0.46
2023-03-06T02:30:20.278Z,0.42
2023-03-06T02:32:46.968Z,0.50
2023-03-06T02:35:25.335Z,0.46
2023-03-06T02:37:52.697Z,0.43
2023-03-06T02:40:19.368Z,0.41
2023-03-06T02:42:47.726Z,0.56
2023-03-06T02:45:14.393Z,0.59
2023-03-06T02:47:41.143Z,0.02
2023-03-06T02:50:08.532Z,0.10
2023-03-06T02:52:35.208Z,-0.13
2023-03-06T02:55:01.810Z,-0.13
2023-03-06T02:57:28.499Z,-0.11
2023-03-06T02:59:55.218Z,0.03
2023-03-06T03:02:21.869Z,-0.07
2023-03-06T03:04:48.483Z,-0.11
2023-03-06T03:07:15.206Z,-0.14
2023-03-06T03:09:41.994Z,-0.45
2023-03-06T03:12:09.048Z,-0.25
2023-03-06T03:14:35.709Z,-0.15
2023-03-06T03:17:02.580Z,-0.15
2023-03-06T03:19:29.249Z,-0.21
2023-03-06T03:21:56.005Z,-0.11
2023-03-06T03:24:22.750Z,-0.15
2023-03-06T03:26:49.400Z,-0.16
2023-03-06T03:29:16.124Z,-0.48
2023-03-06T03:31:42.827Z,-0.45
2023-03-06T03:34:09.501Z,-0.82
2023-03-06T03:36:36.059Z,-0.46
2023-03-06T03:39:03.461Z,-0.26
2023-03-06T03:41:30.290Z,-0.04
2023-03-06T03:43:56.943Z,-0.14
2023-03-06T03:46:23.583Z,-0.17
2023-03-06T03:48:50.217Z,0.03
2023-03-06T03:51:16.828Z,0.15
2023-03-06T03:53:44.125Z,0.19
2023-03-06T03:56:11.203Z,0.05
2023-03-06T03:58:37.948Z,0.03
2023-03-06T04:01:05.003Z,-0.19
2023-03-06T04:03:31.883Z,-0.17
2023-03-06T04:05:58.757Z,-0.40
2023-03-06T04:08:26.009Z,-0.30
2023-03-06T04:10:52.858Z,0.05
2023-03-06T04:13:22.893Z,-0.04
2023-03-06T04:15:50.184Z,0.16
2023-03-06T04:18:16.910Z,0.13
2023-03-06T04:20:44.576Z,0.11
2023-03-06T04:23:11.269Z,0.07
2023-03-06T04:25:38.119Z,0.08
2023-03-06T04:28:05.104Z,-0.21
2023-03-06T04:30:31.872Z,-0.28
2023-03-06T04:32:58.569Z,0.03
2023-03-06T04:35:25.328Z,0.08
2023-03-06T04:37:52.167Z,0.23
2023-03-06T04:40:20.407Z,0.31
2023-03-06T04:42:47.579Z,0.16
2023-03-06T04:45:14.762Z,0.38
2023-03-06T04:47:41.772Z,0.09
2023-03-06T04:50:08.925Z,-0.06
2023-03-06T04:52:35.566Z,-0.01
2023-03-06T04:55:08.591Z,0.22
2023-03-06T04:57:39.366Z,0.30
2023-03-06T05:00:10.182Z,0.50
2023-03-06T05:02:36.859Z,0.36
2023-03-06T05:05:03.789Z,0.34
2023-03-06T05:07:30.532Z,0.40
2023-03-06T05:09:57.194Z,0.29
2023-03-06T05:12:23.936Z,0.43
2023-03-06T05:14:50.512Z,0.68
2023-03-06T05:17:17.189Z,0.83
2023-03-06T05:19:43.858Z,0.68
2023-03-06T05:22:10.546Z,0.57
2023-03-06T05:24:37.253Z,0.68
2023-03-06T05:27:04.361Z,0.78
2023-03-06T05:29:30.994Z,0.55
2023-03-06T05:31:57.643Z,0.44
2023-03-06T05:34:24.234Z,0.65
2023-03-06T05:36:50.836Z,0.67
2023-03-06T05:39:17.846Z,0.67
2023-03-06T05:41:44.485Z,0.71
2023-03-06T05:44:11.162Z,0.40
2023-03-06T05:46:38.365Z,0.58
2023-03-06T05:49:05.068Z,0.65
2023-03-06T05:51:31.680Z,0.77
2023-03-06T05:53:58.316Z,0.91
2023-03-06T05:56:24.965Z,0.97
2023-03-06T05:58:51.689Z,1.13
2023-03-06T06:01:19.260Z,1.29
2023-03-06T06:03:46.096Z,1.29
2023-03-06T06:06:13.566Z,1.22
2023-03-06T06:08:40.269Z,1.33
2023-03-06T06:11:07.848Z,1.36
2023-03-06T06:13:34.503Z,1.45
2023-03-06T06:16:05.997Z,1.60
2023-03-06T06:18:32.701Z,1.83
2023-03-06T06:20:59.291Z,2.23
2023-03-06T06:23:25.985Z,2.32
2023-03-06T06:25:52.645Z,2.27
2023-03-06T06:28:19.330Z,2.60
2023-03-06T06:30:46.022Z,2.40
2023-03-06T06:33:12.714Z,2.41
2023-03-06T06:35:39.350Z,2.67
2023-03-06T06:38:06.021Z,2.57
2023-03-06T06:40:32.650Z,2.75
2023-03-06T06:42:59.266Z,2.79
2023-03-06T06:45:25.997Z,3.17
2023-03-06T06:47:52.775Z,3.27
2023-03-06T06:50:19.527Z,3.29
2023-03-06T06:52:46.178Z,3.00
2023-03-06T06:55:13.135Z,3.33
2023-03-06T06:57:40.594Z,3.32
2023-03-06T07:00:07.704Z,3.43
2023-03-06T07:02:34.398Z,3.70
2023-03-06T07:05:04.653Z,3.35
2023-03-06T07:07:34.078Z,3.72
2023-03-06T07:10:00.722Z,3.76
2023-03-06T07:12:27.404Z,3.72
2023-03-06T07:14:54.013Z,3.92
2023-03-06T07:17:20.656Z,3.98
2023-03-06T07:19:48.319Z,3.83
2023-03-06T07:22:15.115Z,4.10
2023-03-06T07:24:41.735Z,4.12
2023-03-06T07:27:08.456Z,4.25
2023-03-06T07:29:35.275Z,4.32
2023-03-06T07:32:02.120Z,4.47
2023-03-06T07:34:28.937Z,4.54
2023-03-06T07:36:55.548Z,5.03
2023-03-06T07:39:22.266Z,4.90
2023-03-06T07:41:49.026Z,4.80
2023-03-06T07:44:15.733Z,5.01
2023-03-06T07:46:42.454Z,5.00
2023-03-06T07:49:09.150Z,5.13
2023-03-06T07:51:35.840Z,5.13
2023-03-06T07:54:02.454Z,4.87
2023-03-06T07:56:29.203Z,5.12
2023-03-06T07:58:57.030Z,5.41
2023-03-06T08:01:24.292Z,5.03
2023-03-06T08:03:51.247Z,5.29
2023-03-06T08:06:19.765Z,5.51
2023-03-06T08:08:46.877Z,5.88
2023-03-06T08:11:14.496Z,5.68
2023-03-06T08:13:41.272Z,5.92
2023-03-06T08:16:08.523Z,5.79
2023-03-06T08:18:35.289Z,5.65
2023-03-06T08:21:09.948Z,6.10
2023-03-06T08:23:36.895Z,6.02
2023-03-06T08:26:19.919Z,6.09
2023-03-06T08:28:46.747Z,6.14
2023-03-06T08:31:32.353Z,5.98
2023-03-06T08:34:00.637Z,6.10
2023-03-06T08:36:27.471Z,6.36
2023-03-06T08:38:54.093Z,6.63
2023-03-06T08:41:21.018Z,6.78
2023-03-06T08:43:48.124Z,6.32
2023-03-06T08:46:14.841Z,6.31
2023-03-06T08:48:41.591Z,6.58
2023-03-06T08:51:09.214Z,6.64
2023-03-06T08:53:43.084Z,6.89
2023-03-06T08:56:21.212Z,6.68
2023-03-06T08:58:47.884Z,7.12
2023-03-06T09:01:36.633Z,6.73
2023-03-06T09:04:08.376Z,6.89
2023-03-06T09:06:37.097Z,6.97
2023-03-06T09:09:04.091Z,6.90
2023-03-06T09:11:30.833Z,6.90
2023-03-06T09:13:57.607Z,7.09
2023-03-06T09:16:24.460Z,6.98
2023-03-06T09:18:53.026Z,7.06
2023-03-06T09:21:23.046Z,7.18
2023-03-06T09:23:49.890Z,7.16
2023-03-06T09:26:16.583Z,7.39
2023-03-06T09:28:43.226Z,7.37
2023-03-06T09:31:11.072Z,7.51
2023-03-06T09:33:38.028Z,7.55
2023-03-06T09:36:05.489Z,7.63
2023-03-06T09:38:32.202Z,7.86
2023-03-06T09:40:59.235Z,7.47
2023-03-06T09:43:36.021Z,7.66
2023-03-06T09:46:47.306Z,7.82
2023-03-06T09:49:55.581Z,8.05
2023-03-06T09:52:34.327Z,8.04
2023-03-06T09:55:20.844Z,8.24
2023-03-06T09:58:07.098Z,8.43
2023-03-06T10:00:42.291Z,8.46
2023-03-06T10:03:19.916Z,8.35
2023-03-06T10:05:49.374Z,8.27
2023-03-06T10:08:19.061Z,8.18
2023-03-06T10:11:01.836Z,8.43
2023-03-06T10:13:40.523Z,8.27
2023-03-06T10:16:46.342Z,8.31
2023-03-06T10:19:17.964Z,8.45
2023-03-06T10:22:06.297Z,8.34
2023-03-06T10:24:54.342Z,8.36
2023-03-06T10:27:47.387Z,9.09
2023-03-06T10:30:32.829Z,9.04
2023-03-06T10:33:00.701Z,9.12
2023-03-06T10:35:47.507Z,9.05
2023-03-06T10:38:32.525Z,8.71
2023-03-06T10:41:10.983Z,9.03
2023-03-06T10:43:44.874Z,9.20
2023-03-06T10:46:12.976Z,9.36
2023-03-06T10:48:42.137Z,9.21
2023-03-06T10:51:19.847Z,9.04
2023-03-06T10:53:57.295Z,9.42
2023-03-06T10:56:31.939Z,9.20
2023-03-06T10:59:17.802Z,8.95
2023-03-06T11:01:54.845Z,8.79
2023-03-06T11:04:24.544Z,9.16
2023-03-06T11:07:21.789Z,9.45
2023-03-06T11:09:57.405Z,9.56
2023-03-06T11:12:24.068Z,9.82
2023-03-06T11:15:12.339Z,9.24
2023-03-06T11:17:49.550Z,9.39
2023-03-06T11:20:35.768Z,9.29
2023-03-06T11:23:24.188Z,9.17
2023-03-06T11:25:56.254Z,9.24
2023-03-06T11:28:40.377Z,9.70
2023-03-06T11:31:11.738Z,10.15
2023-03-06T11:33:49.170Z,10.15
2023-03-06T11:36:42.330Z,9.93
2023-03-06T11:39:17.558Z,9.93
2023-03-06T11:42:04.413Z,10.49
2023-03-06T11:44:53.309Z,11.06
2023-03-06T11:47:26.261Z,10.68
2023-03-06T11:50:04.325Z,10.47
2023-03-06T11:52:37.042Z,10.54
2023-03-06T11:55:03.730Z,9.90
2023-03-06T11:57:38.950Z,9.62
2023-03-06T12:00:34.089Z,9.35
2023-03-06T12:03:22.558Z,9.72
2023-03-06T12:06:29.480Z,9.75
2023-03-06T12:09:05.002Z,9.54
2023-03-06T12:11:40.111Z,9.48
2023-03-06T12:14:21.887Z,9.42
2023-03-06T12:17:16.125Z,9.72
2023-03-06T12:20:07.315Z,10.29
2023-03-06T12:22:57.847Z,10.01
2023-03-06T12:25:42.212Z,9.95
2023-03-06T12:28:31.498Z,10.49
2023-03-06T12:31:17.965Z,10.49
2023-03-06T12:33:48.855Z,10.62
2023-03-06T12:36:30.492Z,10.30
2023-03-06T12:39:08.385Z,10.01
2023-03-06T12:41:44.153Z,10.50
2023-03-06T12:44:55.462Z,10.55
2023-03-06T12:47:22.461Z,11.36
2023-03-06T12:49:53.417Z,10.81
2023-03-06T12:52:30.578Z,11.22
2023-03-06T12:54:58.768Z,11.08
2023-03-06T12:57:25.719Z,11.45
2023-03-06T12:59:53.079Z,11.38
2023-03-06T13:02:44.559Z,11.81
2023-03-06T13:05:41.267Z,10.61
2023-03-06T13:08:25.700Z,10.11
2023-03-06T13:11:14.094Z,10.00
2023-03-06T13:13:44.487Z,9.88
2023-03-06T13:16:30.892Z,10.00
2023-03-06T13:19:16.829Z,10.00
2023-03-06T13:21:55.796Z,10.73
2023-03-06T13:24:33.170Z,10.48
2023-03-06T13:27:04.567Z,10.72
2023-03-06T13:29:37.282Z,10.47
2023-03-06T13:32:03.986Z,10.61
2023-03-06T13:34:40.375Z,10.44
2023-03-06T13:37:25.104Z,10.15
2023-03-06T13:40:00.652Z,9.94
2023-03-06T13:42:42.300Z,10.46
2023-03-06T13:45:15.572Z,10.44
2023-03-06T13:48:14.132Z,11.00
2023-03-06T13:51:03.085Z,10.41
2023-03-06T13:54:00.254Z,10.66
2023-03-06T13:56:51.948Z,10.68
2023-03-06T14:00:08.287Z,10.11
2023-03-06T14:02:53.408Z,9.94
2023-03-06T14:05:19.843Z,9.91
2023-03-06T14:08:10.090Z,9.95
2023-03-06T14:10:37.110Z,9.87
2023-03-06T14:13:06.649Z,9.96
2023-03-06T14:15:44.997Z,9.92
2023-03-06T14:18:15.993Z,9.87
2023-03-06T14:21:04.417Z,9.94
2023-03-06T14:23:33.459Z,9.74
2023-03-06T14:26:19.671Z,9.38
2023-03-06T14:28:58.623Z,9.83
2023-03-06T14:31:26.062Z,10.04
2023-03-06T14:33:54.083Z,10.19
2023-03-06T14:36:22.216Z,10.33
2023-03-06T14:38:51.967Z,10.68
2023-03-06T14:41:33.454Z,10.62
2023-03-06T14:44:19.408Z,10.19
2023-03-06T14:46:47.239Z,10.47
2023-03-06T14:49:15.279Z,9.88
2023-03-06T14:51:44.077Z,9.90
2023-03-06T14:54:20.190Z,10.06
2023-03-06T14:56:48.424Z,9.89
2023-03-06T14:59:17.136Z,9.89
2023-03-06T15:01:45.833Z,9.62
2023-03-06T15:04:35.160Z,9.32
2023-03-06T15:07:01.879Z,9.23
2023-03-06T15:09:30.333Z,9.14
2023-03-06T15:12:19.774Z,9.41
2023-03-06T15:14:56.085Z,9.49
2023-03-06T15:17:29.045Z,9.80
2023-03-06T15:19:57.165Z,9.90
2023-03-06T15:22:30.942Z,9.81
2023-03-06T15:25:20.789Z,10.18
2023-03-06T15:27:52.771Z,9.59
2023-03-06T15:30:22.579Z,9.38
2023-03-06T15:32:49.216Z,9.40
2023-03-06T15:35:29.621Z,9.59
2023-03-06T15:37:56.722Z,9.52
2023-03-06T15:40:24.504Z,9.81
2023-03-06T15:42:51.139Z,9.58
2023-03-06T15:45:22.064Z,9.87
2023-03-06T15:47:49.425Z,9.58
2023-03-06T15:50:23.668Z,9.45
2023-03-06T15:52:50.202Z,9.44
2023-03-06T15:55:21.104Z,9.22
2023-03-06T15:57:55.688Z,9.04
2023-03-06T16:00:38.132Z,9.04
2023-03-06T16:03:04.728Z,8.94
2023-03-06T16:05:31.568Z,8.91
2023-03-06T16:07:58.248Z,9.06
2023-03-06T16:10:26.590Z,9.10
2023-03-06T16:12:56.146Z,9.06
2023-03-06T16:15:28.252Z,9.14
2023-03-06T16:17:58.374Z,9.06
2023-03-06T16:20:26.396Z,8.82
2023-03-06T16:22:55.847Z,8.92
2023-03-06T16:25:23.710Z,8.79
2023-03-06T16:27:56.799Z,8.98
2023-03-06T16:30:24.322Z,9.08
2023-03-06T16:32:50.967Z,8.95
2023-03-06T16:35:18.552Z,8.98
2023-03-06T16:37:45.509Z,9.37
2023-03-06T16:40:15.552Z,9.11
2023-03-06T16:42:42.137Z,9.08
2023-03-06T16:45:09.442Z,8.89
2023-03-06T16:47:36.340Z,8.83
2023-03-06T16:50:03.507Z,8.76
2023-03-06T16:52:30.238Z,8.52
2023-03-06T16:54:56.898Z,8.30
2023-03-06T16:57:23.505Z,8.25
2023-03-06T16:59:50.365Z,8.16
2023-03-06T17:02:17.023Z,8.07
2023-03-06T17:04:43.716Z,7.93
2023-03-06T17:07:10.433Z,7.83
2023-03-06T17:09:37.097Z,6.74
2023-03-06T17:12:03.920Z,7.03
2023-03-06T17:14:33.457Z,7.30
2023-03-06T17:17:00.046Z,7.35
2023-03-06T17:19:26.831Z,7.38
2023-03-06T17:21:53.774Z,7.41
2023-03-06T17:24:20.398Z,7.46
2023-03-06T17:26:48.530Z,7.28
2023-03-06T17:29:15.520Z,7.07
2023-03-06T17:31:42.315Z,7.02
2023-03-06T17:34:09.024Z,6.70
2023-03-06T17:36:35.662Z,6.83
2023-03-06T17:39:02.918Z,6.60
2023-03-06T17:41:30.004Z,6.52
2023-03-06T17:43:57.823Z,6.37
2023-03-06T17:46:24.614Z,6.34
2023-03-06T17:48:51.242Z,6.54
2023-03-06T17:51:17.952Z,6.04
2023-03-06T17:53:44.628Z,6.03
2023-03-06T17:56:12.673Z,5.89
2023-03-06T17:58:39.260Z,6.10
2023-03-06T18:01:13.143Z,5.99
2023-03-06T18:03:39.908Z,5.34
2023-03-06T18:06:09.516Z,5.03
2023-03-06T18:08:37.109Z,5.06
2023-03-06T18:11:04.846Z,5.26
2023-03-06T18:13:32.367Z,5.17
2023-03-06T18:15:59.624Z,5.11
2023-03-06T18:18:26.513Z,4.44
2023-03-06T18:20:53.100Z,4.11
2023-03-06T18:23:19.881Z,4.34
2023-03-06T18:25:46.573Z,4.35
2023-03-06T18:28:13.592Z,4.06
2023-03-06T18:30:43.556Z,4.28
2023-03-06T18:33:10.331Z,4.37
2023-03-06T18:35:37.034Z,4.18
2023-03-06T18:38:03.717Z,3.70
2023-03-06T18:40:30.334Z,4.18
2023-03-06T18:42:56.912Z,4.44
2023-03-06T18:45:23.589Z,4.52
2023-03-06T18:47:50.233Z,4.34
2023-03-06T18:50:17.697Z,4.05
2023-03-06T18:52:44.499Z,3.69
2023-03-06T18:55:11.450Z,3.84
2023-03-06T18:57:38.589Z,4.16
2023-03-06T19:00:06.539Z,3.92
2023-03-06T19:02:33.238Z,4.01
2023-03-06T19:04:59.944Z,4.25
2023-03-06T19:07:26.688Z,4.07
2023-03-06T19:09:53.377Z,4.16
2023-03-06T19:12:20.195Z,4.52
2023-03-06T19:14:46.797Z,4.26
2023-03-06T19:17:13.533Z,3.92
2023-03-06T19:19:40.334Z,3.98
2023-03-06T19:22:06.941Z,4.21
2023-03-06T19:24:34.038Z,3.85
2023-03-06T19:27:00.793Z,3.88
2023-03-06T19:29:28.506Z,3.29
2023-03-06T19:31:57.258Z,3.43
2023-03-06T19:34:24.124Z,3.54
2023-03-06T19:36:50.846Z,3.56
2023-03-06T19:39:17.509Z,3.76
2023-03-06T19:41:45.588Z,3.67
2023-03-06T19:44:12.935Z,3.65
2023-03-06T19:46:40.759Z,3.70
2023-03-06T19:49:12.075Z,3.86
2023-03-06T19:51:38.979Z,3.43
2023-03-06T19:54:05.752Z,3.26
2023-03-06T19:56:33.736Z,3.53
2023-03-06T19:59:00.508Z,3.80
2023-03-06T20:01:27.407Z,3.92
2023-03-06T20:04:00.461Z,3.97
2023-03-06T20:06:28.498Z,4.15
2023-03-06T20:08:55.266Z,3.89
2023-03-06T20:11:26.661Z,3.68
2023-03-06T20:13:53.614Z,3.82
2023-03-06T20:16:20.340Z,3.69
2023-03-06T20:18:47.052Z,3.90
2023-03-06T20:21:13.894Z,3.64
2023-03-06T20:23:40.945Z,3.52
2023-03-06T20:26:09.670Z,3.75
2023-03-06T20:28:37.715Z,3.48
2023-03-06T20:31:13.543Z,3.32
2023-03-06T20:33:40.382Z,2.78
2023-03-06T20:36:17.326Z,2.96
2023-03-06T20:38:44.068Z,2.69
2023-03-06T20:41:21.057Z,2.99
2023-03-06T20:43:47.971Z,3.06
2023-03-06T20:46:15.079Z,3.13
2023-03-06T20:48:42.013Z,3.10
2023-03-06T20:51:15.697Z,2.66
2023-03-06T20:53:42.400Z,2.64
2023-03-06T20:56:12.930Z,2.25
2023-03-06T20:58:39.535Z,2.13
2023-03-06T21:01:06.148Z,2.26
2023-03-06T21:03:32.732Z,2.57
2023-03-06T21:05:59.438Z,2.76
2023-03-06T21:08:26.047Z,2.16
2023-03-06T21:10:52.661Z,2.32
2023-03-06T21:13:19.649Z,2.40
2023-03-06T21:15:47.619Z,2.34
2023-03-06T21:18:14.406Z,2.21
2023-03-06T21:20:41.198Z,2.34
2023-03-06T21:23:07.984Z,1.92
2023-03-06T21:25:34.725Z,1.97
2023-03-06T21:28:01.439Z,1.75
2023-03-06T21:30:28.577Z,1.72
2023-03-06T21:32:55.433Z,1.80
2023-03-06T21:35:22.106Z,1.91
2023-03-06T21:37:48.790Z,2.21
2023-03-06T21:40:16.759Z,1.94
2023-03-06T21:42:43.402Z,1.98
2023-03-06T21:45:10.494Z,1.83
2023-03-06T21:47:41.027Z,1.50
2023-03-06T21:50:09.922Z,1.64
2023-03-06T21:52:36.562Z,2.07
2023-03-06T21:55:03.359Z,2.03
2023-03-06T21:57:30.002Z,2.03
2023-03-06T21:59:56.739Z,1.95
2023-03-06T22:02:23.553Z,2.11
2023-03-06T22:04:51.183Z,2.06
2023-03-06T22:07:18.178Z,1.98
2023-03-06T22:09:45.013Z,1.72
2023-03-06T22:12:11.741Z,1.54
2023-03-06T22:14:38.474Z,1.25
2023-03-06T22:17:05.099Z,1.42
2023-03-06T22:19:31.826Z,1.28
2023-03-06T22:21:58.525Z,1.29
2023-03-06T22:24:25.391Z,1.49
2023-03-06T22:26:51.961Z,1.43
2023-03-06T22:29:18.661Z,1.18
2023-03-06T22:31:45.472Z,0.94
2023-03-06T22:34:12.162Z,0.61
2023-03-06T22:36:38.762Z,0.51
2023-03-06T22:39:05.485Z,0.85
2023-03-06T22:41:32.121Z,1.08
2023-03-06T22:43:59.686Z,1.21
2023-03-06T22:46:26.563Z,1.36
2023-03-06T22:48:53.195Z,1.73
2023-03-06T22:51:20.406Z,1.92
2023-03-06T22:53:47.491Z,2.04
2023-03-06T22:56:16.470Z,2.11
2023-03-06T22:58:44.815Z,2.15
2023-03-06T23:01:13.858Z,2.24
2023-03-06T23:03:42.024Z,1.83
2023-03-06T23:06:19.325Z,1.47
2023-03-06T23:08:49.262Z,1.00
2023-03-06T23:11:16.764Z,1.16
2023-03-06T23:13:43.450Z,1.37
2023-03-06T23:16:10.373Z,1.63
2023-03-06T23:18:37.216Z,1.38
2023-03-06T23:21:14.597Z,1.32
2023-03-06T23:23:41.440Z,0.91
2023-03-06T23:26:08.336Z,0.72
2023-03-06T23:28:35.143Z,0.67
2023-03-06T23:31:15.403Z,0.71
2023-03-06T23:33:42.572Z,0.49
2023-03-06T23:36:11.399Z,0.69
2023-03-06T23:38:38.111Z,0.89
2023-03-06T23:41:06.111Z,0.76
2023-03-06T23:43:32.866Z,1.06
2023-03-06T23:45:59.994Z,1.25
2023-03-06T23:48:27.091Z,0.96
2023-03-06T23:50:53.917Z,1.31
2023-03-06T23:53:20.549Z,1.03
2023-03-06T23:55:48.385Z,1.24
2023-03-06T23:58:15.796Z,1.30
